sensor_id;sensor_type;location;lat;lon;timestamp;P1;durP1;ratioP1;P2;durP2;ratioP2
44662;SDS011;30381;52.754;18.258;2023-04-24T05:02:48;19.70;;;11.70;;
44662;SDS011;30381;52.754;18.258;2023-04-24T05:05:17;20.50;;;12.90;;
44662;SDS011;30381;52.754;18.258;2023-04-24T05:07:47;27.40;;;16.40;;
44662;SDS011;30381;52.754;18.258;2023-04-24T05:10:13;29.40;;;19.60;;
44662;SDS011;30381;52.754;18.258;2023-04-24T05:12:52;47.40;;;28.40;;
44662;SDS011;30381;52.754;18.258;2023-04-24T05:15:26;42.90;;;24.50;;
44662;SDS011;30381;52.754;18.258;2023-04-24T05:18:37;32.20;;;18.70;;
44662;SDS011;30381;52.754;18.258;2023-04-24T05:21:08;31.40;;;19.30;;
44662;SDS011;30381;52.754;18.258;2023-04-24T05:23:53;26.90;;;17.10;;
44662;SDS011;30381;52.754;18.258;2023-04-24T05:26:20;33.70;;;21.00;;
44662;SDS011;30381;52.754;18.258;2023-04-24T05:28:49;42.00;;;25.10;;
44662;SDS011;30381;52.754;18.258;2023-04-24T05:31:23;73.30;;;39.20;;
44662;SDS011;30381;52.754;18.258;2023-04-24T05:36:34;55.30;;;29.00;;
44662;SDS011;30381;52.754;18.258;2023-04-24T05:39:01;38.60;;;20.70;;
44662;SDS011;30381;52.754;18.258;2023-04-24T05:41:35;26.90;;;16.70;;
44662;SDS011;30381;52.754;18.258;2023-04-24T05:44:04;22.30;;;13.10;;
44662;SDS011;30381;52.754;18.258;2023-04-24T05:46:30;22.60;;;14.10;;
44662;SDS011;30381;52.754;18.258;2023-04-24T05:48:57;23.90;;;13.90;;
44662;SDS011;30381;52.754;18.258;2023-04-24T05:51:23;22.50;;;13.60;;
44662;SDS011;30381;52.754;18.258;2023-04-24T05:53:52;19.50;;;12.60;;
44662;SDS011;30381;52.754;18.258;2023-04-24T05:56:19;18.50;;;13.00;;
44662;SDS011;30381;52.754;18.258;2023-04-24T05:58:46;20.50;;;12.80;;
44662;SDS011;30381;52.754;18.258;2023-04-24T06:01:13;21.50;;;14.00;;
44662;SDS011;30381;52.754;18.258;2023-04-24T06:03:48;19.70;;;13.70;;
44662;SDS011;30381;52.754;18.258;2023-04-24T06:06:19;18.80;;;14.30;;
44662;SDS011;30381;52.754;18.258;2023-04-24T06:08:45;17.30;;;11.80;;
44662;SDS011;30381;52.754;18.258;2023-04-24T06:11:12;19.90;;;11.00;;
44662;SDS011;30381;52.754;18.258;2023-04-24T06:13:38;15.40;;;10.00;;
44662;SDS011;30381;52.754;18.258;2023-04-24T06:16:04;15.60;;;10.50;;
44662;SDS011;30381;52.754;18.258;2023-04-24T06:18:31;17.90;;;10.00;;
44662;SDS011;30381;52.754;18.258;2023-04-24T06:20:58;18.70;;;11.20;;
44662;SDS011;30381;52.754;18.258;2023-04-24T06:23:28;15.60;;;9.60;;
44662;SDS011;30381;52.754;18.258;2023-04-24T06:25:56;18.40;;;11.30;;
44662;SDS011;30381;52.754;18.258;2023-04-24T06:28:23;19.10;;;11.50;;
44662;SDS011;30381;52.754;18.258;2023-04-24T06:30:55;18.20;;;10.00;;
44662;SDS011;30381;52.754;18.258;2023-04-24T06:33:21;15.80;;;10.20;;
44662;SDS011;30381;52.754;18.258;2023-04-24T06:35:48;16.80;;;11.00;;
44662;SDS011;30381;52.754;18.258;2023-04-24T06:38:14;19.60;;;11.90;;
44662;SDS011;30381;52.754;18.258;2023-04-24T06:40:43;19.50;;;11.80;;
44662;SDS011;30381;52.754;18.258;2023-04-24T06:43:09;16.40;;;10.70;;
44662;SDS011;30381;52.754;18.258;2023-04-24T06:45:36;18.90;;;10.70;;
44662;SDS011;30381;52.754;18.258;2023-04-24T06:48:04;17.90;;;11.40;;
44662;SDS011;30381;52.754;18.258;2023-04-24T06:50:31;18.30;;;10.30;;
44662;SDS011;30381;52.754;18.258;2023-04-24T06:52:57;16.40;;;10.50;;
44662;SDS011;30381;52.754;18.258;2023-04-24T06:55:24;20.30;;;11.80;;
44662;SDS011;30381;52.754;18.258;2023-04-24T06:57:50;15.90;;;10.90;;
44662;SDS011;30381;52.754;18.258;2023-04-24T07:00:17;16.30;;;10.20;;
44662;SDS011;30381;52.754;18.258;2023-04-24T07:02:45;18.00;;;10.40;;
44662;SDS011;30381;52.754;18.258;2023-04-24T07:05:12;19.50;;;10.50;;
44662;SDS011;30381;52.754;18.258;2023-04-24T07:07:42;16.70;;;11.40;;
44662;SDS011;30381;52.754;18.258;2023-04-24T07:10:08;17.60;;;11.20;;
44662;SDS011;30381;52.754;18.258;2023-04-24T07:12:35;16.90;;;10.80;;
44662;SDS011;30381;52.754;18.258;2023-04-24T07:15:01;15.80;;;11.00;;
44662;SDS011;30381;52.754;18.258;2023-04-24T07:17:35;15.90;;;11.50;;
44662;SDS011;30381;52.754;18.258;2023-04-24T07:20:09;17.90;;;12.60;;
44662;SDS011;30381;52.754;18.258;2023-04-24T07:22:39;18.80;;;13.90;;
44662;SDS011;30381;52.754;18.258;2023-04-24T07:25:09;22.90;;;17.70;;
44662;SDS011;30381;52.754;18.258;2023-04-24T07:27:39;32.90;;;29.40;;
44662;SDS011;30381;52.754;18.258;2023-04-24T07:30:07;33.60;;;28.40;;
44662;SDS011;30381;52.754;18.258;2023-04-24T07:32:37;26.20;;;22.40;;
44662;SDS011;30381;52.754;18.258;2023-04-24T07:35:03;21.50;;;18.80;;
44662;SDS011;30381;52.754;18.258;2023-04-24T07:37:30;35.80;;;31.70;;
44662;SDS011;30381;52.754;18.258;2023-04-24T07:39:58;20.60;;;16.00;;
44662;SDS011;30381;52.754;18.258;2023-04-24T07:42:25;15.00;;;9.40;;
44662;SDS011;30381;52.754;18.258;2023-04-24T07:44:52;14.90;;;8.60;;
44662;SDS011;30381;52.754;18.258;2023-04-24T07:47:19;14.60;;;8.80;;
44662;SDS011;30381;52.754;18.258;2023-04-24T07:49:48;13.70;;;9.00;;
44662;SDS011;30381;52.754;18.258;2023-04-24T07:52:14;12.50;;;8.20;;
44662;SDS011;30381;52.754;18.258;2023-04-24T07:54:41;16.80;;;8.40;;
44662;SDS011;30381;52.754;18.258;2023-04-24T07:57:09;12.40;;;7.70;;
44662;SDS011;30381;52.754;18.258;2023-04-24T07:59:39;12.50;;;6.20;;
44662;SDS011;30381;52.754;18.258;2023-04-24T08:02:08;12.40;;;7.20;;
44662;SDS011;30381;52.754;18.258;2023-04-24T08:04:36;11.10;;;6.30;;
44662;SDS011;30381;52.754;18.258;2023-04-24T08:07:04;12.10;;;7.10;;
44662;SDS011;30381;52.754;18.258;2023-04-24T08:09:30;13.10;;;7.40;;
44662;SDS011;30381;52.754;18.258;2023-04-24T08:11:58;11.80;;;6.50;;
44662;SDS011;30381;52.754;18.258;2023-04-24T08:14:26;12.00;;;6.40;;
44662;SDS011;30381;52.754;18.258;2023-04-24T08:16:54;10.60;;;6.10;;
44662;SDS011;30381;52.754;18.258;2023-04-24T08:19:29;10.30;;;5.90;;
44662;SDS011;30381;52.754;18.258;2023-04-24T08:21:55;11.60;;;6.30;;
44662;SDS011;30381;52.754;18.258;2023-04-24T08:24:24;11.80;;;6.30;;
44662;SDS011;30381;52.754;18.258;2023-04-24T08:26:53;12.30;;;6.80;;
44662;SDS011;30381;52.754;18.258;2023-04-24T08:29:24;11.70;;;6.40;;
44662;SDS011;30381;52.754;18.258;2023-04-24T08:31:52;10.70;;;6.10;;
44662;SDS011;30381;52.754;18.258;2023-04-24T08:34:21;12.70;;;6.30;;
44662;SDS011;30381;52.754;18.258;2023-04-24T08:36:47;10.70;;;6.40;;
44662;SDS011;30381;52.754;18.258;2023-04-24T08:39:15;11.60;;;6.60;;
44662;SDS011;30381;52.754;18.258;2023-04-24T08:41:45;12.30;;;6.80;;
44662;SDS011;30381;52.754;18.258;2023-04-24T08:44:15;10.50;;;6.70;;
44662;SDS011;30381;52.754;18.258;2023-04-24T08:46:43;11.30;;;7.00;;
44662;SDS011;30381;52.754;18.258;2023-04-24T08:49:16;15.00;;;7.90;;
44662;SDS011;30381;52.754;18.258;2023-04-24T08:51:43;22.10;;;13.30;;
44662;SDS011;30381;52.754;18.258;2023-04-24T08:54:12;14.80;;;9.60;;
44662;SDS011;30381;52.754;18.258;2023-04-24T08:56:40;11.70;;;7.10;;
44662;SDS011;30381;52.754;18.258;2023-04-24T08:59:09;13.90;;;7.30;;
44662;SDS011;30381;52.754;18.258;2023-04-24T09:01:37;11.80;;;6.70;;
44662;SDS011;30381;52.754;18.258;2023-04-24T09:04:13;11.10;;;7.20;;
44662;SDS011;30381;52.754;18.258;2023-04-24T09:06:49;13.10;;;8.20;;
44662;SDS011;30381;52.754;18.258;2023-04-24T09:09:19;12.20;;;7.70;;
44662;SDS011;30381;52.754;18.258;2023-04-24T09:11:46;11.60;;;8.00;;
44662;SDS011;30381;52.754;18.258;2023-04-24T09:14:19;12.50;;;7.60;;
44662;SDS011;30381;52.754;18.258;2023-04-24T09:16:47;12.70;;;8.30;;
44662;SDS011;30381;52.754;18.258;2023-04-24T09:19:16;13.00;;;8.70;;
44662;SDS011;30381;52.754;18.258;2023-04-24T09:21:47;13.20;;;8.90;;
44662;SDS011;30381;52.754;18.258;2023-04-24T09:24:22;14.60;;;8.40;;
44662;SDS011;30381;52.754;18.258;2023-04-24T09:27:06;14.90;;;9.10;;
44662;SDS011;30381;52.754;18.258;2023-04-24T09:29:38;15.60;;;9.40;;
44662;SDS011;30381;52.754;18.258;2023-04-24T09:32:21;13.10;;;8.80;;
44662;SDS011;30381;52.754;18.258;2023-04-24T09:35:19;13.90;;;9.20;;
44662;SDS011;30381;52.754;18.258;2023-04-24T09:37:55;14.10;;;8.80;;
44662;SDS011;30381;52.754;18.258;2023-04-24T09:40:26;14.40;;;8.80;;
44662;SDS011;30381;52.754;18.258;2023-04-24T09:42:58;19.40;;;9.40;;
44662;SDS011;30381;52.754;18.258;2023-04-24T09:45:38;15.60;;;9.90;;
44662;SDS011;30381;52.754;18.258;2023-04-24T09:48:17;14.50;;;8.80;;
44662;SDS011;30381;52.754;18.258;2023-04-24T09:50:58;14.30;;;8.70;;
44662;SDS011;30381;52.754;18.258;2023-04-24T09:53:28;13.40;;;9.10;;
44662;SDS011;30381;52.754;18.258;2023-04-24T09:56:07;13.00;;;8.20;;
44662;SDS011;30381;52.754;18.258;2023-04-24T09:58:36;14.50;;;8.90;;
44662;SDS011;30381;52.754;18.258;2023-04-24T10:01:29;14.10;;;8.50;;
44662;SDS011;30381;52.754;18.258;2023-04-24T10:04:04;14.30;;;8.70;;
44662;SDS011;30381;52.754;18.258;2023-04-24T10:07:00;15.50;;;9.10;;
44662;SDS011;30381;52.754;18.258;2023-04-24T10:09:32;13.90;;;9.60;;
44662;SDS011;30381;52.754;18.258;2023-04-24T10:12:10;14.70;;;10.40;;
44662;SDS011;30381;52.754;18.258;2023-04-24T10:14:39;16.70;;;11.90;;
44662;SDS011;30381;52.754;18.258;2023-04-24T10:17:16;15.00;;;10.20;;
44662;SDS011;30381;52.754;18.258;2023-04-24T10:19:47;16.60;;;10.10;;
44662;SDS011;30381;52.754;18.258;2023-04-24T10:22:14;16.10;;;11.80;;
44662;SDS011;30381;52.754;18.258;2023-04-24T10:24:45;16.20;;;11.00;;
44662;SDS011;30381;52.754;18.258;2023-04-24T10:27:19;14.80;;;10.50;;
44662;SDS011;30381;52.754;18.258;2023-04-24T10:29:47;18.00;;;10.80;;
44662;SDS011;30381;52.754;18.258;2023-04-24T10:32:19;18.30;;;11.70;;
44662;SDS011;30381;52.754;18.258;2023-04-24T10:34:46;19.70;;;11.80;;
44662;SDS011;30381;52.754;18.258;2023-04-24T10:37:13;15.50;;;10.00;;
44662;SDS011;30381;52.754;18.258;2023-04-24T10:39:52;17.80;;;10.30;;
44662;SDS011;30381;52.754;18.258;2023-04-24T10:42:28;14.40;;;9.50;;
44662;SDS011;30381;52.754;18.258;2023-04-24T10:44:56;15.30;;;9.60;;
44662;SDS011;30381;52.754;18.258;2023-04-24T10:47:40;16.50;;;10.40;;
44662;SDS011;30381;52.754;18.258;2023-04-24T10:50:25;16.00;;;10.20;;
44662;SDS011;30381;52.754;18.258;2023-04-24T10:53:15;16.50;;;10.00;;
44662;SDS011;30381;52.754;18.258;2023-04-24T10:55:51;15.10;;;9.90;;
44662;SDS011;30381;52.754;18.258;2023-04-24T10:58:49;19.30;;;10.10;;
44662;SDS011;30381;52.754;18.258;2023-04-24T11:01:23;13.40;;;9.20;;
44662;SDS011;30381;52.754;18.258;2023-04-24T11:04:00;13.10;;;9.40;;
44662;SDS011;30381;52.754;18.258;2023-04-24T11:06:33;13.60;;;9.70;;
44662;SDS011;30381;52.754;18.258;2023-04-24T11:09:07;14.40;;;10.10;;
44662;SDS011;30381;52.754;18.258;2023-04-24T11:11:49;16.50;;;9.70;;
44662;SDS011;30381;52.754;18.258;2023-04-24T11:14:18;16.40;;;9.50;;
44662;SDS011;30381;52.754;18.258;2023-04-24T11:16:52;15.70;;;10.30;;
44662;SDS011;30381;52.754;18.258;2023-04-24T11:19:33;14.20;;;10.00;;
44662;SDS011;30381;52.754;18.258;2023-04-24T11:22:13;13.90;;;9.40;;
44662;SDS011;30381;52.754;18.258;2023-04-24T11:24:59;18.20;;;10.60;;
44662;SDS011;30381;52.754;18.258;2023-04-24T11:27:49;14.30;;;9.10;;
44662;SDS011;30381;52.754;18.258;2023-04-24T11:30:34;15.70;;;9.50;;
44662;SDS011;30381;52.754;18.258;2023-04-24T11:33:12;12.70;;;8.20;;
44662;SDS011;30381;52.754;18.258;2023-04-24T11:36:03;13.50;;;8.20;;
44662;SDS011;30381;52.754;18.258;2023-04-24T11:38:49;15.10;;;9.40;;
44662;SDS011;30381;52.754;18.258;2023-04-24T11:41:37;12.20;;;8.40;;
44662;SDS011;30381;52.754;18.258;2023-04-24T11:47:05;14.00;;;8.00;;
44662;SDS011;30381;52.754;18.258;2023-04-24T11:49:43;13.20;;;7.90;;
44662;SDS011;30381;52.754;18.258;2023-04-24T11:52:20;11.40;;;6.80;;
44662;SDS011;30381;52.754;18.258;2023-04-24T11:54:53;13.10;;;6.40;;
44662;SDS011;30381;52.754;18.258;2023-04-24T11:57:23;12.20;;;6.10;;
44662;SDS011;30381;52.754;18.258;2023-04-24T11:59:53;12.60;;;5.90;;
44662;SDS011;30381;52.754;18.258;2023-04-24T12:03:09;11.20;;;5.30;;
44662;SDS011;30381;52.754;18.258;2023-04-24T12:05:41;10.10;;;5.00;;
44662;SDS011;30381;52.754;18.258;2023-04-24T12:08:12;12.00;;;5.70;;
44662;SDS011;30381;52.754;18.258;2023-04-24T12:11:19;12.10;;;6.50;;
44662;SDS011;30381;52.754;18.258;2023-04-24T12:14:10;11.00;;;5.40;;
44662;SDS011;30381;52.754;18.258;2023-04-24T12:16:38;11.60;;;5.30;;
44662;SDS011;30381;52.754;18.258;2023-04-24T12:19:05;14.80;;;6.10;;
44662;SDS011;30381;52.754;18.258;2023-04-24T12:21:40;17.60;;;5.30;;
44662;SDS011;30381;52.754;18.258;2023-04-24T12:24:07;14.70;;;5.50;;
44662;SDS011;30381;52.754;18.258;2023-04-24T12:26:36;11.70;;;5.80;;
44662;SDS011;30381;52.754;18.258;2023-04-24T12:29:12;12.20;;;5.70;;
44662;SDS011;30381;52.754;18.258;2023-04-24T12:31:57;13.30;;;4.60;;
44662;SDS011;30381;52.754;18.258;2023-04-24T12:34:26;13.70;;;5.60;;
44662;SDS011;30381;52.754;18.258;2023-04-24T12:37:11;13.20;;;5.30;;
44662;SDS011;30381;52.754;18.258;2023-04-24T12:42:45;11.90;;;5.80;;
44662;SDS011;30381;52.754;18.258;2023-04-24T12:45:19;11.20;;;5.00;;
44662;SDS011;30381;52.754;18.258;2023-04-24T12:47:55;11.10;;;5.80;;
44662;SDS011;30381;52.754;18.258;2023-04-24T12:50:27;11.20;;;5.30;;
44662;SDS011;30381;52.754;18.258;2023-04-24T12:52:57;13.90;;;6.00;;
44662;SDS011;30381;52.754;18.258;2023-04-24T12:55:30;11.70;;;5.70;;
44662;SDS011;30381;52.754;18.258;2023-04-24T12:58:04;15.60;;;5.80;;
44662;SDS011;30381;52.754;18.258;2023-04-24T13:00:31;14.00;;;6.60;;
44662;SDS011;30381;52.754;18.258;2023-04-24T13:03:04;13.70;;;6.30;;
44662;SDS011;30381;52.754;18.258;2023-04-24T13:09:27;17.60;;;7.20;;
44662;SDS011;30381;52.754;18.258;2023-04-24T13:12:25;15.00;;;6.60;;
44662;SDS011;30381;52.754;18.258;2023-04-24T13:16:25;14.70;;;6.80;;
44662;SDS011;30381;52.754;18.258;2023-04-24T13:23:56;11.70;;;6.40;;
44662;SDS011;30381;52.754;18.258;2023-04-24T13:26:57;12.30;;;7.00;;
44662;SDS011;30381;52.754;18.258;2023-04-24T14:25:49;10.70;;;6.10;;
